sensor_id;sensor_type;location;lat;lon;timestamp;pressure;altitude;pressure_sealevel;temperature;humidity
49063;BME280;34876;51.464;-0.150;2023-04-03T00:00:09;103058.30;;;16.94;35.99
49063;BME280;34876;51.464;-0.150;2023-04-03T00:03:24;103055.44;;;16.59;37.46
49063;BME280;34876;51.464;-0.150;2023-04-03T00:05:53;103056.65;;;16.61;33.65
49063;BME280;34876;51.464;-0.150;2023-04-03T00:08:22;103051.83;;;16.85;36.94
49063;BME280;34876;51.464;-0.150;2023-04-03T00:10:52;103054.16;;;16.68;37.36
49063;BME280;34876;51.464;-0.150;2023-04-03T00:13:21;103054.94;;;16.95;36.77
49063;BME280;34876;51.464;-0.150;2023-04-03T00:15:49;103053.84;;;16.37;37.91
49063;BME280;34876;51.464;-0.150;2023-04-03T00:18:18;103056.43;;;16.74;37.21
49063;BME280;34876;51.464;-0.150;2023-04-03T00:20:47;103053.42;;;16.69;37.34
49063;BME280;34876;51.464;-0.150;2023-04-03T00:23:16;103053.51;;;17.06;36.57
49063;BME280;34876;51.464;-0.150;2023-04-03T00:25:45;103048.76;;;16.71;37.23
49063;BME280;34876;51.464;-0.150;2023-04-03T00:28:15;103049.97;;;17.03;36.80
49063;BME280;34876;51.464;-0.150;2023-04-03T00:30:45;103050.61;;;16.20;38.16
49063;BME280;34876;51.464;-0.150;2023-04-03T00:33:14;103049.34;;;17.00;36.70
49063;BME280;34876;51.464;-0.150;2023-04-03T00:35:43;103047.35;;;17.11;36.44
49063;BME280;34876;51.464;-0.150;2023-04-03T00:38:12;103041.17;;;17.09;36.38
49063;BME280;34876;51.464;-0.150;2023-04-03T00:40:44;103046.98;;;14.76;40.82
49063;BME280;34876;51.464;-0.150;2023-04-03T00:43:21;103037.62;;;16.50;37.67
49063;BME280;34876;51.464;-0.150;2023-04-03T00:45:51;103042.97;;;15.39;35.61
49063;BME280;34876;51.464;-0.150;2023-04-03T00:48:24;103038.78;;;16.35;37.90
49063;BME280;34876;51.464;-0.150;2023-04-03T00:50:57;103035.26;;;16.70;37.38
49063;BME280;34876;51.464;-0.150;2023-04-03T00:53:31;103040.82;;;15.99;38.60
49063;BME280;34876;51.464;-0.150;2023-04-03T00:56:06;103032.72;;;16.38;37.96
49063;BME280;34876;51.464;-0.150;2023-04-03T00:58:41;103029.94;;;16.87;36.93
49063;BME280;34876;51.464;-0.150;2023-04-03T01:01:15;103031.60;;;15.69;39.06
49063;BME280;34876;51.464;-0.150;2023-04-03T01:03:44;103030.34;;;15.72;37.56
49063;BME280;34876;51.464;-0.150;2023-04-03T01:06:16;103026.27;;;16.73;36.81
49063;BME280;34876;51.464;-0.150;2023-04-03T01:08:47;103031.67;;;15.99;37.05
49063;BME280;34876;51.464;-0.150;2023-04-03T01:11:17;103033.61;;;16.33;34.69
49063;BME280;34876;51.464;-0.150;2023-04-03T01:13:46;103034.57;;;16.16;38.11
49063;BME280;34876;51.464;-0.150;2023-04-03T01:16:15;103038.05;;;16.08;38.35
49063;BME280;34876;51.464;-0.150;2023-04-03T01:18:45;103031.76;;;16.81;37.03
49063;BME280;34876;51.464;-0.150;2023-04-03T01:22:27;103033.18;;;14.41;41.64
49063;BME280;34876;51.464;-0.150;2023-04-03T01:24:59;103044.62;;;13.10;42.98
49063;BME280;34876;51.464;-0.150;2023-04-03T01:27:30;103032.07;;;15.08;38.88
49063;BME280;34876;51.464;-0.150;2023-04-03T01:30:00;103028.73;;;15.25;40.15
49063;BME280;34876;51.464;-0.150;2023-04-03T01:32:29;103032.70;;;14.52;37.15
49063;BME280;34876;51.464;-0.150;2023-04-03T01:34:58;103038.81;;;14.06;42.18
49063;BME280;34876;51.464;-0.150;2023-04-03T01:37:28;103028.35;;;15.15;40.32
49063;BME280;34876;51.464;-0.150;2023-04-03T01:39:57;103026.24;;;14.80;40.64
49063;BME280;34876;51.464;-0.150;2023-04-03T01:42:27;103024.55;;;15.06;40.15
49063;BME280;34876;51.464;-0.150;2023-04-03T01:44:56;103025.87;;;14.46;41.63
49063;BME280;34876;51.464;-0.150;2023-04-03T01:47:26;103022.77;;;14.58;41.38
49063;BME280;34876;51.464;-0.150;2023-04-03T01:49:55;103023.60;;;14.21;40.12
49063;BME280;34876;51.464;-0.150;2023-04-03T01:52:24;103017.97;;;16.07;38.64
49063;BME280;34876;51.464;-0.150;2023-04-03T01:54:53;103017.30;;;15.90;38.77
49063;BME280;34876;51.464;-0.150;2023-04-03T01:57:23;103015.25;;;15.15;39.49
49063;BME280;34876;51.464;-0.150;2023-04-03T01:59:52;103016.66;;;14.80;40.57
49063;BME280;34876;51.464;-0.150;2023-04-03T02:02:21;103013.28;;;15.43;39.71
49063;BME280;34876;51.464;-0.150;2023-04-03T02:04:50;103011.67;;;15.49;39.38
49063;BME280;34876;51.464;-0.150;2023-04-03T02:07:20;103006.39;;;16.50;37.43
49063;BME280;34876;51.464;-0.150;2023-04-03T02:09:49;103009.29;;;15.81;38.74
49063;BME280;34876;51.464;-0.150;2023-04-03T02:12:17;103008.35;;;16.09;38.38
49063;BME280;34876;51.464;-0.150;2023-04-03T02:14:47;103010.08;;;16.45;37.56
49063;BME280;34876;51.464;-0.150;2023-04-03T02:17:17;103009.78;;;16.51;36.71
49063;BME280;34876;51.464;-0.150;2023-04-03T02:19:45;103012.06;;;16.83;36.67
49063;BME280;34876;51.464;-0.150;2023-04-03T02:22:14;103013.32;;;16.40;37.54
49063;BME280;34876;51.464;-0.150;2023-04-03T02:24:58;103012.09;;;16.35;37.50
49063;BME280;34876;51.464;-0.150;2023-04-03T02:27:27;103009.91;;;16.15;37.51
49063;BME280;34876;51.464;-0.150;2023-04-03T02:29:56;103013.97;;;15.75;38.72
49063;BME280;34876;51.464;-0.150;2023-04-03T02:32:26;103012.26;;;15.79;38.43
49063;BME280;34876;51.464;-0.150;2023-04-03T02:35:00;103004.99;;;16.73;36.88
49063;BME280;34876;51.464;-0.150;2023-04-03T02:37:29;103009.27;;;16.23;37.71
49063;BME280;34876;51.464;-0.150;2023-04-03T02:39:59;103006.03;;;16.43;36.71
49063;BME280;34876;51.464;-0.150;2023-04-03T02:42:30;103005.36;;;16.61;37.10
49063;BME280;34876;51.464;-0.150;2023-04-03T02:44:59;103002.70;;;16.68;36.63
49063;BME280;34876;51.464;-0.150;2023-04-03T02:47:28;103004.42;;;15.76;38.52
49063;BME280;34876;51.464;-0.150;2023-04-03T02:49:58;103002.91;;;15.83;38.52
49063;BME280;34876;51.464;-0.150;2023-04-03T02:52:27;103001.92;;;15.88;37.51
49063;BME280;34876;51.464;-0.150;2023-04-03T02:54:57;102999.90;;;16.69;36.96
49063;BME280;34876;51.464;-0.150;2023-04-03T02:57:26;103003.45;;;15.85;38.55
49063;BME280;34876;51.464;-0.150;2023-04-03T02:59:56;103003.53;;;16.36;37.60
49063;BME280;34876;51.464;-0.150;2023-04-03T03:02:25;103001.95;;;16.33;37.53
49063;BME280;34876;51.464;-0.150;2023-04-03T03:04:54;103002.85;;;16.78;36.63
49063;BME280;34876;51.464;-0.150;2023-04-03T03:07:24;102995.57;;;16.53;37.27
49063;BME280;34876;51.464;-0.150;2023-04-03T03:09:53;102992.44;;;16.53;37.24
49063;BME280;34876;51.464;-0.150;2023-04-03T03:12:22;102990.48;;;16.84;36.65
49063;BME280;34876;51.464;-0.150;2023-04-03T03:14:52;102992.00;;;16.87;34.82
49063;BME280;34876;51.464;-0.150;2023-04-03T03:17:20;102990.48;;;17.00;36.25
49063;BME280;34876;51.464;-0.150;2023-04-03T03:19:50;102990.63;;;17.05;36.14
49063;BME280;34876;51.464;-0.150;2023-04-03T03:22:20;102988.57;;;17.08;36.08
49063;BME280;34876;51.464;-0.150;2023-04-03T03:24:48;102990.44;;;17.10;36.03
49063;BME280;34876;51.464;-0.150;2023-04-03T03:27:16;102992.80;;;17.09;36.00
49063;BME280;34876;51.464;-0.150;2023-04-03T03:29:45;102993.58;;;17.10;36.06
49063;BME280;34876;51.464;-0.150;2023-04-03T03:32:14;102990.29;;;17.13;36.00
49063;BME280;34876;51.464;-0.150;2023-04-03T03:34:45;102990.05;;;17.14;35.97
49063;BME280;34876;51.464;-0.150;2023-04-03T03:37:16;102988.11;;;17.13;36.03
49063;BME280;34876;51.464;-0.150;2023-04-03T03:39:50;102990.86;;;17.16;35.85
49063;BME280;34876;51.464;-0.150;2023-04-03T03:42:20;102993.16;;;17.16;35.94
49063;BME280;34876;51.464;-0.150;2023-04-03T03:44:49;102992.98;;;17.16;36.03
49063;BME280;34876;51.464;-0.150;2023-04-03T03:47:17;102991.30;;;17.16;35.95
49063;BME280;34876;51.464;-0.150;2023-04-03T03:49:46;102988.06;;;17.16;36.00
49063;BME280;34876;51.464;-0.150;2023-04-03T03:52:16;102983.62;;;17.18;35.89
49063;BME280;34876;51.464;-0.150;2023-04-03T03:54:50;102985.48;;;17.17;36.03
49063;BME280;34876;51.464;-0.150;2023-04-03T03:57:20;102985.81;;;17.17;35.83
49063;BME280;34876;51.464;-0.150;2023-04-03T03:59:49;102986.37;;;17.17;35.90
49063;BME280;34876;51.464;-0.150;2023-04-03T04:02:19;102988.93;;;17.18;35.96
49063;BME280;34876;51.464;-0.150;2023-04-03T04:04:48;102986.46;;;17.19;35.90
49063;BME280;34876;51.464;-0.150;2023-04-03T04:07:18;102986.07;;;17.19;35.87
49063;BME280;34876;51.464;-0.150;2023-04-03T04:09:47;102984.91;;;17.17;36.06
49063;BME280;34876;51.464;-0.150;2023-04-03T04:12:17;102985.02;;;17.17;35.86
49063;BME280;34876;51.464;-0.150;2023-04-03T04:14:46;102982.67;;;17.18;35.87
49063;BME280;34876;51.464;-0.150;2023-04-03T04:17:15;102982.38;;;17.19;35.86
49063;BME280;34876;51.464;-0.150;2023-04-03T04:19:45;102981.99;;;17.19;35.82
49063;BME280;34876;51.464;-0.150;2023-04-03T04:22:15;102981.85;;;17.20;35.93
49063;BME280;34876;51.464;-0.150;2023-04-03T04:24:44;102982.53;;;17.20;35.83
49063;BME280;34876;51.464;-0.150;2023-04-03T04:27:12;102982.74;;;17.20;35.86
49063;BME280;34876;51.464;-0.150;2023-04-03T04:29:42;102991.42;;;17.19;35.84
49063;BME280;34876;51.464;-0.150;2023-04-03T04:32:11;102992.21;;;17.19;35.83
49063;BME280;34876;51.464;-0.150;2023-04-03T04:34:39;102988.62;;;17.20;35.73
49063;BME280;34876;51.464;-0.150;2023-04-03T04:37:10;102986.93;;;17.21;35.78
49063;BME280;34876;51.464;-0.150;2023-04-03T04:39:40;102986.35;;;17.22;35.83
49063;BME280;34876;51.464;-0.150;2023-04-03T04:42:09;102984.63;;;17.21;35.83
49063;BME280;34876;51.464;-0.150;2023-04-03T04:44:38;102981.38;;;17.22;35.79
49063;BME280;34876;51.464;-0.150;2023-04-03T04:47:07;102980.55;;;17.21;35.75
49063;BME280;34876;51.464;-0.150;2023-04-03T04:49:42;102985.15;;;17.20;35.80
49063;BME280;34876;51.464;-0.150;2023-04-03T04:52:11;102982.90;;;17.21;35.71
49063;BME280;34876;51.464;-0.150;2023-04-03T04:54:40;102984.58;;;17.21;35.88
49063;BME280;34876;51.464;-0.150;2023-04-03T04:57:09;102982.09;;;17.23;35.72
49063;BME280;34876;51.464;-0.150;2023-04-03T04:59:39;102980.25;;;17.23;35.80
49063;BME280;34876;51.464;-0.150;2023-04-03T05:02:11;102981.09;;;17.22;35.72
49063;BME280;34876;51.464;-0.150;2023-04-03T05:04:40;102984.76;;;17.24;35.72
49063;BME280;34876;51.464;-0.150;2023-04-03T05:07:09;102988.64;;;17.22;35.84
49063;BME280;34876;51.464;-0.150;2023-04-03T05:09:38;102988.01;;;17.23;35.75
49063;BME280;34876;51.464;-0.150;2023-04-03T05:12:07;102990.58;;;17.24;35.70
49063;BME280;34876;51.464;-0.150;2023-04-03T05:14:37;102987.18;;;17.23;35.73
49063;BME280;34876;51.464;-0.150;2023-04-03T05:17:07;102989.18;;;17.23;35.65
49063;BME280;34876;51.464;-0.150;2023-04-03T05:19:36;102988.96;;;17.23;35.82
49063;BME280;34876;51.464;-0.150;2023-04-03T05:22:05;102992.19;;;17.24;35.71
49063;BME280;34876;51.464;-0.150;2023-04-03T05:24:35;102994.14;;;17.25;35.70
49063;BME280;34876;51.464;-0.150;2023-04-03T05:27:04;102993.49;;;17.27;35.65
49063;BME280;34876;51.464;-0.150;2023-04-03T05:29:34;102993.10;;;17.27;35.72
49063;BME280;34876;51.464;-0.150;2023-04-03T05:32:03;102993.19;;;17.25;35.74
49063;BME280;34876;51.464;-0.150;2023-04-03T05:34:32;102994.49;;;17.24;35.70
49063;BME280;34876;51.464;-0.150;2023-04-03T05:37:02;102996.12;;;17.27;35.69
49063;BME280;34876;51.464;-0.150;2023-04-03T05:39:31;102997.15;;;17.29;35.63
49063;BME280;34876;51.464;-0.150;2023-04-03T05:42:00;103002.47;;;17.25;35.70
49063;BME280;34876;51.464;-0.150;2023-04-03T05:44:30;103002.14;;;17.25;35.63
49063;BME280;34876;51.464;-0.150;2023-04-03T05:47:02;103000.57;;;17.25;35.65
49063;BME280;34876;51.464;-0.150;2023-04-03T05:49:32;103002.87;;;17.24;35.79
49063;BME280;34876;51.464;-0.150;2023-04-03T05:52:02;103001.51;;;17.25;35.53
49063;BME280;34876;51.464;-0.150;2023-04-03T05:54:31;103004.26;;;17.28;35.70
49063;BME280;34876;51.464;-0.150;2023-04-03T05:57:00;102999.62;;;17.25;35.71
49063;BME280;34876;51.464;-0.150;2023-04-03T05:59:29;103000.37;;;17.27;35.67
49063;BME280;34876;51.464;-0.150;2023-04-03T06:01:58;103002.31;;;17.28;35.64
49063;BME280;34876;51.464;-0.150;2023-04-03T06:04:29;103000.25;;;17.27;35.58
49063;BME280;34876;51.464;-0.150;2023-04-03T06:07:03;103003.11;;;17.12;35.92
49063;BME280;34876;51.464;-0.150;2023-04-03T06:09:32;103000.82;;;17.23;35.78
49063;BME280;34876;51.464;-0.150;2023-04-03T06:12:02;103006.42;;;17.26;35.68
49063;BME280;34876;51.464;-0.150;2023-04-03T06:14:32;103009.73;;;17.26;35.63
49063;BME280;34876;51.464;-0.150;2023-04-03T06:17:02;103004.92;;;17.25;35.52
49063;BME280;34876;51.464;-0.150;2023-04-03T06:19:32;103010.98;;;17.05;35.83
49063;BME280;34876;51.464;-0.150;2023-04-03T06:22:02;103014.18;;;16.96;36.21
49063;BME280;34876;51.464;-0.150;2023-04-03T06:24:31;103012.32;;;17.17;35.84
49063;BME280;34876;51.464;-0.150;2023-04-03T06:27:02;103014.58;;;17.23;35.64
49063;BME280;34876;51.464;-0.150;2023-04-03T06:29:31;103012.77;;;17.24;35.65
49063;BME280;34876;51.464;-0.150;2023-04-03T06:32:02;103013.51;;;17.27;35.58
49063;BME280;34876;51.464;-0.150;2023-04-03T06:34:31;103008.85;;;17.28;35.52
49063;BME280;34876;51.464;-0.150;2023-04-03T06:37:00;103009.67;;;17.25;35.66
49063;BME280;34876;51.464;-0.150;2023-04-03T06:39:29;103014.53;;;17.30;35.59
49063;BME280;34876;51.464;-0.150;2023-04-03T06:41:59;103015.51;;;17.28;35.59
49063;BME280;34876;51.464;-0.150;2023-04-03T06:44:29;103016.04;;;17.29;35.56
49063;BME280;34876;51.464;-0.150;2023-04-03T06:46:58;103017.01;;;17.29;35.62
49063;BME280;34876;51.464;-0.150;2023-04-03T06:49:27;103016.55;;;17.33;35.49
49063;BME280;34876;51.464;-0.150;2023-04-03T06:51:58;103016.98;;;17.34;35.52
49063;BME280;34876;51.464;-0.150;2023-04-03T06:54:33;103016.42;;;17.34;35.50
49063;BME280;34876;51.464;-0.150;2023-04-03T06:57:03;103017.31;;;17.27;35.66
49063;BME280;34876;51.464;-0.150;2023-04-03T06:59:32;103017.84;;;17.29;35.58
49063;BME280;34876;51.464;-0.150;2023-04-03T07:02:02;103017.34;;;17.36;35.42
49063;BME280;34876;51.464;-0.150;2023-04-03T07:04:32;103021.20;;;17.39;35.38
49063;BME280;34876;51.464;-0.150;2023-04-03T07:07:02;103024.60;;;17.37;35.48
49063;BME280;34876;51.464;-0.150;2023-04-03T07:09:32;103019.84;;;17.34;35.53
49063;BME280;34876;51.464;-0.150;2023-04-03T07:12:01;103018.06;;;17.25;35.73
49063;BME280;34876;51.464;-0.150;2023-04-03T07:14:30;103019.32;;;17.35;35.50
49063;BME280;34876;51.464;-0.150;2023-04-03T07:17:00;103019.35;;;17.36;35.51
49063;BME280;34876;51.464;-0.150;2023-04-03T07:19:31;103017.10;;;17.37;35.44
49063;BME280;34876;51.464;-0.150;2023-04-03T07:22:00;103015.75;;;17.34;35.54
49063;BME280;34876;51.464;-0.150;2023-04-03T07:24:29;103014.30;;;17.37;35.54
49063;BME280;34876;51.464;-0.150;2023-04-03T07:27:01;103015.52;;;16.92;36.40
49063;BME280;34876;51.464;-0.150;2023-04-03T07:29:31;103006.29;;;18.28;33.89
49063;BME280;34876;51.464;-0.150;2023-04-03T07:32:00;103012.87;;;16.81;36.37
49063;BME280;34876;51.464;-0.150;2023-04-03T07:34:29;103015.90;;;17.05;35.87
49063;BME280;34876;51.464;-0.150;2023-04-03T07:36:59;103015.91;;;17.35;35.64
49063;BME280;34876;51.464;-0.150;2023-04-03T07:39:28;103013.83;;;17.39;35.52
49063;BME280;34876;51.464;-0.150;2023-04-03T07:41:58;103015.59;;;17.41;35.47
49063;BME280;34876;51.464;-0.150;2023-04-03T07:44:28;103015.03;;;16.56;37.15
49063;BME280;34876;51.464;-0.150;2023-04-03T07:46:58;103014.98;;;16.60;37.21
49063;BME280;34876;51.464;-0.150;2023-04-03T07:49:27;103016.74;;;16.72;36.54
49063;BME280;34876;51.464;-0.150;2023-04-03T07:51:56;103015.38;;;17.21;36.03
49063;BME280;34876;51.464;-0.150;2023-04-03T07:54:24;103012.72;;;16.84;36.66
49063;BME280;34876;51.464;-0.150;2023-04-03T07:56:54;103017.52;;;17.17;35.95
49063;BME280;34876;51.464;-0.150;2023-04-03T07:59:23;103012.05;;;18.04;34.32
49063;BME280;34876;51.464;-0.150;2023-04-03T08:01:52;103020.73;;;17.62;35.20
49063;BME280;34876;51.464;-0.150;2023-04-03T08:04:22;103017.84;;;17.57;35.09
49063;BME280;34876;51.464;-0.150;2023-04-03T08:06:52;103026.25;;;17.60;35.25
49063;BME280;34876;51.464;-0.150;2023-04-03T08:09:21;103016.70;;;18.59;33.40
49063;BME280;34876;51.464;-0.150;2023-04-03T08:11:51;103019.71;;;18.84;32.84
49063;BME280;34876;51.464;-0.150;2023-04-03T08:14:21;103019.01;;;19.27;31.21
49063;BME280;34876;51.464;-0.150;2023-04-03T08:16:49;103021.15;;;18.50;33.39
49063;BME280;34876;51.464;-0.150;2023-04-03T08:19:18;103017.06;;;19.04;32.53
49063;BME280;34876;51.464;-0.150;2023-04-03T08:21:47;103023.37;;;18.07;32.69
49063;BME280;34876;51.464;-0.150;2023-04-03T08:24:16;103023.95;;;19.02;32.47
49063;BME280;34876;51.464;-0.150;2023-04-03T08:26:46;103022.01;;;19.23;32.15
49063;BME280;34876;51.464;-0.150;2023-04-03T08:29:19;103021.22;;;19.40;31.36
49063;BME280;34876;51.464;-0.150;2023-04-03T08:31:49;103019.70;;;19.48;31.73
49063;BME280;34876;51.464;-0.150;2023-04-03T08:34:18;103019.95;;;19.23;32.25
49063;BME280;34876;51.464;-0.150;2023-04-03T08:36:48;103020.36;;;19.55;31.66
49063;BME280;34876;51.464;-0.150;2023-04-03T08:39:18;103019.61;;;19.46;31.91
49063;BME280;34876;51.464;-0.150;2023-04-03T08:41:49;103020.71;;;19.09;32.55
49063;BME280;34876;51.464;-0.150;2023-04-03T08:44:29;103032.31;;;17.92;33.55
49063;BME280;34876;51.464;-0.150;2023-04-03T08:47:14;103023.54;;;18.39;33.83
49063;BME280;34876;51.464;-0.150;2023-04-03T08:49:49;103024.26;;;19.06;32.70
49063;BME280;34876;51.464;-0.150;2023-04-03T08:52:25;103018.42;;;18.94;32.95
49063;BME280;34876;51.464;-0.150;2023-04-03T08:55:03;103020.11;;;19.16;32.53
49063;BME280;34876;51.464;-0.150;2023-04-03T08:57:46;103022.94;;;18.60;32.76
49063;BME280;34876;51.464;-0.150;2023-04-03T09:00:24;103034.45;;;17.68;34.47
49063;BME280;34876;51.464;-0.150;2023-04-03T09:02:56;103025.42;;;18.02;34.16
49063;BME280;34876;51.464;-0.150;2023-04-03T09:05:34;103030.95;;;17.42;35.59
49063;BME280;34876;51.464;-0.150;2023-04-03T09:08:18;103027.26;;;18.20;34.33
49063;BME280;34876;51.464;-0.150;2023-04-03T09:10:54;103030.82;;;17.61;34.59
49063;BME280;34876;51.464;-0.150;2023-04-03T09:13:30;103019.88;;;18.32;34.34
49063;BME280;34876;51.464;-0.150;2023-04-03T09:16:02;103016.08;;;18.72;33.53
49063;BME280;34876;51.464;-0.150;2023-04-03T09:18:44;103013.32;;;18.65;33.14
49063;BME280;34876;51.464;-0.150;2023-04-03T09:21:20;103012.59;;;18.70;33.47
49063;BME280;34876;51.464;-0.150;2023-04-03T09:23:54;103013.28;;;18.89;33.00
49063;BME280;34876;51.464;-0.150;2023-04-03T09:26:28;103016.07;;;18.08;34.63
49063;BME280;34876;51.464;-0.150;2023-04-03T09:29:04;103020.56;;;17.48;35.26
49063;BME280;34876;51.464;-0.150;2023-04-03T09:31:37;103014.55;;;16.77;36.44
49063;BME280;34876;51.464;-0.150;2023-04-03T09:34:13;103005.91;;;18.00;35.12
49063;BME280;34876;51.464;-0.150;2023-04-03T09:36:48;103011.14;;;17.80;35.18
49063;BME280;34876;51.464;-0.150;2023-04-03T09:39:19;103013.27;;;16.72;37.58
49063;BME280;34876;51.464;-0.150;2023-04-03T09:41:58;103012.10;;;17.31;36.21
49063;BME280;34876;51.464;-0.150;2023-04-03T09:44:36;103015.03;;;16.26;38.18
49063;BME280;34876;51.464;-0.150;2023-04-03T09:47:18;103014.34;;;16.24;37.45
49063;BME280;34876;51.464;-0.150;2023-04-03T09:49:47;103011.54;;;16.19;38.06
49063;BME280;34876;51.464;-0.150;2023-04-03T09:52:22;103013.76;;;15.53;40.14
49063;BME280;34876;51.464;-0.150;2023-04-03T09:54:53;103019.21;;;15.69;38.77
49063;BME280;34876;51.464;-0.150;2023-04-03T09:57:33;103011.66;;;16.75;36.84
49063;BME280;34876;51.464;-0.150;2023-04-03T10:00:05;103013.53;;;16.86;37.66
49063;BME280;34876;51.464;-0.150;2023-04-03T10:02:40;103015.45;;;17.46;36.40
49063;BME280;34876;51.464;-0.150;2023-04-03T10:05:28;103018.67;;;17.22;35.57
49063;BME280;34876;51.464;-0.150;2023-04-03T10:08:22;103024.39;;;16.76;36.30
49063;BME280;34876;51.464;-0.150;2023-04-03T10:11:12;103017.11;;;16.21;36.41
49063;BME280;34876;51.464;-0.150;2023-04-03T10:13:57;103016.54;;;14.70;39.05
49063;BME280;34876;51.464;-0.150;2023-04-03T10:16:37;103013.36;;;15.75;38.02
49063;BME280;34876;51.464;-0.150;2023-04-03T10:19:43;103007.29;;;16.54;37.80
49063;BME280;34876;51.464;-0.150;2023-04-03T10:22:29;103013.53;;;15.14;38.33
49063;BME280;34876;51.464;-0.150;2023-04-03T10:25:10;103017.12;;;14.31;42.63
49063;BME280;34876;51.464;-0.150;2023-04-03T10:27:51;103011.21;;;16.13;39.16
49063;BME280;34876;51.464;-0.150;2023-04-03T10:30:33;103007.38;;;16.82;37.63
49063;BME280;34876;51.464;-0.150;2023-04-03T10:33:35;103008.13;;;17.24;36.76
49063;BME280;34876;51.464;-0.150;2023-04-03T10:36:13;103011.54;;;16.35;35.87
49063;BME280;34876;51.464;-0.150;2023-04-03T10:38:54;103016.81;;;15.24;37.31
49063;BME280;34876;51.464;-0.150;2023-04-03T10:41:34;103010.77;;;16.38;38.49
49063;BME280;34876;51.464;-0.150;2023-04-03T10:44:15;103007.02;;;15.96;38.97
49063;BME280;34876;51.464;-0.150;2023-04-03T10:46:52;103012.77;;;15.27;36.88
49063;BME280;34876;51.464;-0.150;2023-04-03T10:49:34;103009.20;;;14.14;37.73
49063;BME280;34876;51.464;-0.150;2023-04-03T10:52:12;103008.40;;;15.05;39.95
49063;BME280;34876;51.464;-0.150;2023-04-03T10:54:48;103000.31;;;16.35;38.16
49063;BME280;34876;51.464;-0.150;2023-04-03T10:57:22;102999.37;;;16.09;35.46
49063;BME280;34876;51.464;-0.150;2023-04-03T10:59:56;102996.45;;;16.45;37.67
49063;BME280;34876;51.464;-0.150;2023-04-03T11:02:29;102998.53;;;16.34;35.72
49063;BME280;34876;51.464;-0.150;2023-04-03T11:05:02;102998.63;;;17.20;36.45
49063;BME280;34876;51.464;-0.150;2023-04-03T11:07:38;102994.04;;;17.20;36.26
49063;BME280;34876;51.464;-0.150;2023-04-03T11:10:13;102995.63;;;17.11;35.08
49063;BME280;34876;51.464;-0.150;2023-04-03T11:12:46;102994.10;;;16.15;38.30
49063;BME280;34876;51.464;-0.150;2023-04-03T11:15:20;102999.69;;;16.45;36.48
49063;BME280;34876;51.464;-0.150;2023-04-03T11:17:55;102996.81;;;15.14;36.47
49063;BME280;34876;51.464;-0.150;2023-04-03T11:20:30;103004.96;;;13.60;38.25
49063;BME280;34876;51.464;-0.150;2023-04-03T11:23:02;102994.65;;;14.00;41.37
49063;BME280;34876;51.464;-0.150;2023-04-03T11:25:35;102996.05;;;14.41;41.75
49063;BME280;34876;51.464;-0.150;2023-04-03T11:28:12;102985.94;;;15.06;38.35
49063;BME280;34876;51.464;-0.150;2023-04-03T11:30:46;102982.13;;;15.97;38.83
49063;BME280;34876;51.464;-0.150;2023-04-03T11:33:28;102975.30;;;16.44;38.00
49063;BME280;34876;51.464;-0.150;2023-04-03T11:36:06;102986.32;;;14.52;39.35
49063;BME280;34876;51.464;-0.150;2023-04-03T11:38:38;102977.42;;;16.66;36.92
49063;BME280;34876;51.464;-0.150;2023-04-03T11:41:11;102977.01;;;16.36;37.57
49063;BME280;34876;51.464;-0.150;2023-04-03T11:43:55;102981.56;;;15.81;37.96
49063;BME280;34876;51.464;-0.150;2023-04-03T11:46:49;102975.63;;;15.83;38.22
49063;BME280;34876;51.464;-0.150;2023-04-03T11:49:51;102971.13;;;16.85;36.77
49063;BME280;34876;51.464;-0.150;2023-04-03T11:54:46;102975.19;;;15.36;33.95
49063;BME280;34876;51.464;-0.150;2023-04-03T11:58:22;102971.60;;;14.57;36.60
49063;BME280;34876;51.464;-0.150;2023-04-03T12:01:00;102967.51;;;14.17;38.85
49063;BME280;34876;51.464;-0.150;2023-04-03T12:03:58;102952.05;;;15.07;37.61
49063;BME280;34876;51.464;-0.150;2023-04-03T12:07:25;102946.58;;;15.57;38.11
49063;BME280;34876;51.464;-0.150;2023-04-03T12:09:58;102945.31;;;14.47;38.27
49063;BME280;34876;51.464;-0.150;2023-04-03T12:12:32;102947.22;;;14.28;41.02
49063;BME280;34876;51.464;-0.150;2023-04-03T12:15:52;102943.05;;;14.40;40.36
49063;BME280;34876;51.464;-0.150;2023-04-03T12:18:42;102942.33;;;13.86;37.94
49063;BME280;34876;51.464;-0.150;2023-04-03T12:21:13;102936.47;;;13.92;41.81
49063;BME280;34876;51.464;-0.150;2023-04-03T12:24:02;102925.45;;;15.56;38.72
49063;BME280;34876;51.464;-0.150;2023-04-03T12:26:37;102928.47;;;14.73;38.88
49063;BME280;34876;51.464;-0.150;2023-04-03T12:29:15;102931.35;;;15.25;39.25
49063;BME280;34876;51.464;-0.150;2023-04-03T12:31:53;102929.17;;;16.44;37.02
49063;BME280;34876;51.464;-0.150;2023-04-03T12:34:37;102923.71;;;16.83;32.03
49063;BME280;34876;51.464;-0.150;2023-04-03T12:37:23;102932.12;;;13.96;34.87
49063;BME280;34876;51.464;-0.150;2023-04-03T12:40:07;102930.67;;;13.71;35.91
49063;BME280;34876;51.464;-0.150;2023-04-03T12:42:58;102927.40;;;13.06;40.97
49063;BME280;34876;51.464;-0.150;2023-04-03T12:45:41;102917.12;;;14.39;34.76
49063;BME280;34876;51.464;-0.150;2023-04-03T12:48:15;102927.76;;;14.05;38.04
49063;BME280;34876;51.464;-0.150;2023-04-03T12:50:47;102933.63;;;13.66;35.26
49063;BME280;34876;51.464;-0.150;2023-04-03T12:53:19;102922.36;;;13.49;41.70
49063;BME280;34876;51.464;-0.150;2023-04-03T12:55:54;102917.98;;;14.01;36.94
49063;BME280;34876;51.464;-0.150;2023-04-03T12:58:24;102907.32;;;15.05;38.88
49063;BME280;34876;51.464;-0.150;2023-04-03T13:01:03;102902.45;;;15.47;38.27
49063;BME280;34876;51.464;-0.150;2023-04-03T13:03:41;102899.83;;;14.99;39.30
49063;BME280;34876;51.464;-0.150;2023-04-03T13:06:17;102905.35;;;15.00;33.63
49063;BME280;34876;51.464;-0.150;2023-04-03T13:08:51;102903.27;;;14.86;38.81
49063;BME280;34876;51.464;-0.150;2023-04-03T13:11:24;102917.77;;;15.30;32.94
49063;BME280;34876;51.464;-0.150;2023-04-03T13:13:59;102908.72;;;13.60;33.54